createdAt,value
2022-08-08T00:00:54.390Z,18.50
2022-08-08T00:03:47.580Z,18.54
2022-08-08T00:06:41.759Z,18.54
2022-08-08T00:09:44.465Z,18.25
2022-08-08T00:12:23.715Z,18.32
2022-08-08T00:15:55.833Z,18.38
2022-08-08T00:18:17.937Z,18.19
2022-08-08T00:20:54.274Z,18.33
2022-08-08T00:23:51.205Z,18.18
2022-08-08T00:26:43.471Z,18.21
2022-08-08T00:29:45.471Z,18.09
2022-08-08T00:32:34.686Z,17.97
2022-08-08T00:35:59.915Z,18.09
2022-08-08T00:41:07.361Z,17.98
2022-08-08T00:42:42.156Z,17.93
2022-08-08T00:45:53.498Z,18.10
2022-08-08T00:49:22.099Z,18.32
2022-08-08T00:52:48.475Z,18.34
2022-08-08T00:56:19.230Z,18.26
2022-08-08T00:59:10.426Z,17.94
2022-08-08T01:03:16.042Z,17.90
2022-08-08T01:05:58.459Z,17.85
2022-08-08T01:09:36.032Z,17.97
2022-08-08T01:12:27.695Z,17.36
2022-08-08T01:15:44.108Z,17.83
2022-08-08T01:19:11.724Z,17.55
2022-08-08T01:22:35.187Z,17.42
2022-08-08T01:25:40.386Z,17.28
2022-08-08T01:28:28.025Z,17.31
2022-08-08T01:32:13.464Z,17.48
2022-08-08T01:34:54.623Z,17.56
2022-08-08T01:37:58.035Z,17.58
2022-08-08T01:40:40.650Z,17.87
2022-08-08T01:43:39.067Z,18.09
2022-08-08T01:46:11.996Z,18.04
2022-08-08T01:49:10.971Z,18.08
2022-08-08T01:52:41.221Z,17.96
2022-08-08T01:56:26.937Z,17.61
2022-08-08T01:58:38.646Z,17.61
2022-08-08T02:01:28.174Z,17.79
2022-08-08T02:04:28.933Z,17.60
2022-08-08T02:07:13.783Z,17.40
2022-08-08T02:10:44.996Z,17.51
2022-08-08T02:13:53.286Z,17.44
2022-08-08T02:16:29.115Z,17.49
2022-08-08T02:19:41.867Z,17.37
2022-08-08T02:22:32.543Z,17.10
2022-08-08T02:25:19.374Z,16.97
2022-08-08T02:28:10.843Z,17.19
2022-08-08T02:31:43.362Z,17.53
2022-08-08T02:34:33.212Z,17.45
2022-08-08T02:37:52.576Z,17.31
2022-08-08T02:40:56.938Z,17.28
2022-08-08T02:44:42.464Z,16.95
2022-08-08T02:47:23.986Z,17.17
2022-08-08T02:50:55.570Z,17.13
2022-08-08T02:54:06.760Z,17.04
2022-08-08T02:56:42.762Z,17.16
2022-08-08T02:59:57.745Z,17.16
2022-08-08T03:03:03.048Z,17.05
2022-08-08T03:05:45.397Z,17.09
2022-08-08T03:08:56.966Z,16.99
2022-08-08T03:12:14.378Z,16.98
2022-08-08T03:15:57.762Z,16.90
2022-08-08T03:18:32.084Z,17.01
2022-08-08T03:20:58.916Z,16.95
2022-08-08T03:23:56.149Z,16.92
2022-08-08T03:26:31.012Z,16.73
2022-08-08T03:29:04.569Z,16.72
2022-08-08T03:32:08.624Z,16.75
2022-08-08T03:34:37.701Z,16.80
2022-08-08T03:37:58.961Z,16.65
2022-08-08T03:40:02.278Z,16.72
2022-08-08T03:42:32.131Z,16.79
2022-08-08T03:44:59.605Z,16.76
2022-08-08T03:47:45.224Z,16.75
2022-08-08T03:50:24.594Z,16.65
2022-08-08T03:52:54.624Z,16.67
2022-08-08T03:55:57.485Z,16.76
2022-08-08T03:58:35.255Z,16.69
2022-08-08T04:01:02.107Z,16.62
2022-08-08T04:03:58.958Z,16.73
2022-08-08T04:06:29.814Z,16.65
2022-08-08T04:09:10.363Z,16.67
2022-08-08T04:11:58.141Z,16.61
2022-08-08T04:14:34.311Z,16.70
2022-08-08T04:17:06.916Z,16.69
2022-08-08T04:19:43.819Z,16.73
2022-08-08T04:22:10.857Z,16.65
2022-08-08T04:24:41.939Z,16.73
2022-08-08T04:27:19.742Z,16.63
2022-08-08T04:30:17.276Z,16.58
2022-08-08T04:32:44.877Z,16.94
2022-08-08T04:35:15.257Z,16.84
2022-08-08T04:37:42.184Z,16.78
2022-08-08T04:40:12.409Z,16.66
2022-08-08T04:42:55.993Z,16.67
2022-08-08T04:45:25.527Z,16.83
2022-08-08T04:47:53.883Z,16.81
2022-08-08T04:50:25.418Z,17.06
2022-08-08T04:53:00.477Z,17.15
2022-08-08T04:55:37.616Z,17.18
2022-08-08T04:58:17.544Z,17.41
2022-08-08T05:00:47.621Z,17.51
2022-08-08T05:03:18.862Z,17.66
2022-08-08T05:06:13.620Z,17.77
2022-08-08T05:08:51.844Z,17.66
2022-08-08T05:11:24.265Z,17.62
2022-08-08T05:13:57.935Z,17.70
2022-08-08T05:16:54.854Z,17.83
2022-08-08T05:20:04.263Z,18.02
2022-08-08T05:22:08.880Z,18.06
2022-08-08T05:24:38.470Z,18.08
2022-08-08T05:27:06.607Z,18.22
2022-08-08T05:29:36.086Z,18.30
2022-08-08T05:32:07.376Z,18.38
2022-08-08T05:34:50.785Z,18.34
2022-08-08T05:37:49.019Z,18.66
2022-08-08T05:40:17.621Z,18.81
2022-08-08T05:42:54.216Z,18.70
2022-08-08T05:45:25.395Z,18.78
2022-08-08T05:48:08.925Z,18.88
2022-08-08T05:50:38.496Z,18.91
2022-08-08T05:53:54.666Z,19.11
2022-08-08T05:56:07.752Z,19.02
2022-08-08T05:58:58.044Z,19.15
2022-08-08T06:01:55.590Z,19.29
2022-08-08T06:04:26.157Z,19.26
2022-08-08T06:07:00.082Z,19.44
2022-08-08T06:09:59.881Z,19.42
2022-08-08T06:12:29.730Z,19.60
2022-08-08T06:15:01.165Z,19.56
2022-08-08T06:18:18.719Z,19.67
2022-08-08T06:20:25.983Z,19.75
2022-08-08T06:22:53.903Z,19.96
2022-08-08T06:26:34.754Z,19.70
2022-08-08T06:28:18.327Z,20.08
2022-08-08T06:30:50.718Z,20.16
2022-08-08T06:33:36.979Z,20.16
2022-08-08T06:36:10.666Z,20.19
2022-08-08T06:38:41.043Z,20.28
2022-08-08T06:41:13.070Z,20.41
2022-08-08T06:43:57.438Z,20.57
2022-08-08T06:46:24.928Z,20.79
2022-08-08T06:48:57.619Z,20.97
2022-08-08T06:51:31.233Z,20.96
2022-08-08T06:54:13.375Z,21.15
2022-08-08T06:56:41.939Z,21.09
2022-08-08T06:59:14.227Z,21.20
2022-08-08T07:02:17.618Z,21.26
2022-08-08T07:05:11.993Z,21.38
2022-08-08T07:07:55.248Z,21.40
2022-08-08T07:10:24.880Z,21.30
2022-08-08T07:13:06.192Z,21.45
2022-08-08T07:16:06.315Z,21.41
2022-08-08T07:18:49.959Z,21.57
2022-08-08T07:21:22.337Z,21.53
2022-08-08T07:24:02.801Z,21.76
2022-08-08T07:26:35.276Z,22.03
2022-08-08T07:29:08.187Z,22.30
2022-08-08T07:31:40.579Z,21.96
2022-08-08T07:34:10.326Z,22.17
2022-08-08T07:36:50.454Z,22.42
2022-08-08T07:39:29.763Z,22.47
2022-08-08T07:42:18.999Z,22.49
2022-08-08T07:44:48.274Z,22.84
2022-08-08T07:47:18.314Z,22.77
2022-08-08T07:49:57.532Z,22.12
2022-08-08T07:52:27.223Z,22.66
2022-08-08T07:55:28.556Z,22.67
2022-08-08T07:58:18.080Z,22.85
2022-08-08T08:01:15.979Z,23.25
2022-08-08T08:04:03.871Z,23.19
2022-08-08T08:06:38.573Z,23.41
2022-08-08T08:09:41.802Z,23.35
2022-08-08T08:12:31.390Z,23.56
2022-08-08T08:15:07.095Z,23.31
2022-08-08T08:17:47.467Z,23.75
2022-08-08T08:20:18.586Z,23.82
2022-08-08T08:22:47.444Z,24.16
2022-08-08T08:25:17.029Z,23.98
2022-08-08T08:28:03.074Z,24.31
2022-08-08T08:30:30.655Z,24.24
2022-08-08T08:32:59.318Z,24.24
2022-08-08T08:35:29.887Z,24.40
2022-08-08T08:38:17.535Z,24.11
2022-08-08T08:40:51.175Z,24.49
2022-08-08T08:43:20.231Z,24.67
2022-08-08T08:45:58.131Z,24.75
2022-08-08T08:48:31.715Z,24.79
2022-08-08T08:51:03.281Z,25.17
2022-08-08T08:53:56.561Z,25.62
2022-08-08T08:56:25.585Z,25.10
2022-08-08T08:58:57.193Z,25.37
2022-08-08T09:01:32.305Z,25.21
2022-08-08T09:04:31.642Z,25.56
2022-08-08T09:06:59.602Z,25.13
2022-08-08T09:09:40.300Z,25.49
2022-08-08T09:12:19.934Z,25.40
2022-08-08T09:14:50.144Z,25.36
2022-08-08T09:17:19.658Z,25.87
2022-08-08T09:21:58.546Z,26.24
2022-08-08T09:22:47.705Z,26.69
2022-08-08T09:25:15.685Z,26.57
2022-08-08T09:27:57.427Z,27.11
2022-08-08T09:30:29.697Z,27.20
2022-08-08T09:33:54.047Z,27.04
2022-08-08T09:35:49.899Z,27.00
2022-08-08T09:38:56.264Z,27.88
2022-08-08T09:42:14.486Z,27.68
2022-08-08T09:45:03.848Z,27.03
2022-08-08T09:48:09.607Z,27.46
2022-08-08T09:50:32.549Z,27.57
2022-08-08T09:53:15.296Z,27.66
2022-08-08T09:56:05.128Z,27.37
2022-08-08T09:58:41.805Z,27.58
2022-08-08T10:01:59.547Z,27.65
2022-08-08T10:04:15.208Z,27.69
2022-08-08T10:07:07.538Z,28.02
2022-08-08T10:09:35.839Z,28.17
2022-08-08T10:12:38.215Z,28.14
2022-08-08T10:15:20.032Z,27.94
2022-08-08T10:18:05.494Z,28.30
2022-08-08T10:20:51.268Z,28.06
2022-08-08T10:23:45.017Z,28.56
2022-08-08T10:26:52.106Z,28.54
2022-08-08T10:29:58.461Z,29.15
2022-08-08T10:32:40.308Z,29.35
2022-08-08T10:36:06.289Z,29.72
2022-08-08T10:38:08.538Z,28.86
2022-08-08T10:40:38.807Z,28.89
2022-08-08T10:43:07.191Z,28.67
2022-08-08T10:45:56.644Z,29.65
2022-08-08T10:48:56.671Z,29.41
2022-08-08T10:51:31.530Z,29.19
2022-08-08T10:54:08.345Z,29.29
2022-08-08T10:56:43.290Z,29.00
2022-08-08T10:59:14.081Z,28.92
2022-08-08T11:01:49.404Z,29.54
2022-08-08T11:04:29.656Z,29.57
2022-08-08T11:07:07.089Z,29.71
2022-08-08T11:09:34.867Z,29.54
2022-08-08T11:12:13.352Z,29.46
2022-08-08T11:14:57.079Z,29.73
2022-08-08T11:17:58.511Z,29.26
2022-08-08T11:20:27.573Z,29.44
2022-08-08T11:23:05.747Z,29.41
2022-08-08T11:25:53.184Z,29.92
2022-08-08T11:28:29.081Z,29.42
2022-08-08T11:31:00.174Z,29.30
2022-08-08T11:33:53.135Z,29.18
2022-08-08T11:36:16.255Z,29.43
2022-08-08T11:38:55.638Z,29.84
2022-08-08T11:41:28.052Z,29.44
2022-08-08T11:44:00.827Z,29.80
2022-08-08T11:46:30.488Z,29.80
2022-08-08T11:49:01.545Z,29.78
2022-08-08T11:51:38.918Z,29.78
2022-08-08T11:54:27.443Z,29.66
2022-08-08T11:56:57.744Z,30.24
2022-08-08T12:00:01.791Z,30.67
2022-08-08T12:02:32.834Z,31.06
2022-08-08T12:05:13.451Z,31.37
2022-08-08T12:07:56.025Z,31.97
2022-08-08T12:10:33.617Z,31.50
2022-08-08T12:13:05.799Z,30.58
2022-08-08T12:15:49.393Z,29.71
2022-08-08T12:18:21.603Z,29.57
2022-08-08T12:20:54.287Z,30.40
2022-08-08T12:23:59.281Z,30.72
2022-08-08T12:26:50.253Z,30.31
2022-08-08T12:29:25.895Z,30.08
2022-08-08T12:32:19.870Z,29.77
2022-08-08T12:35:04.673Z,29.92
2022-08-08T12:38:01.678Z,29.76
2022-08-08T12:40:56.023Z,30.25
2022-08-08T12:43:46.558Z,30.62
2022-08-08T12:46:26.774Z,31.19
2022-08-08T12:49:25.148Z,31.22
2022-08-08T12:51:59.060Z,30.27
2022-08-08T12:54:41.026Z,30.69
2022-08-08T12:57:23.403Z,30.02
2022-08-08T13:00:05.744Z,29.84
2022-08-08T13:02:53.346Z,29.59
2022-08-08T13:05:26.203Z,29.84
2022-08-08T13:08:21.211Z,30.14
2022-08-08T13:10:57.251Z,30.36
2022-08-08T13:13:34.676Z,30.09
2022-08-08T13:16:25.998Z,30.17
2022-08-08T13:19:05.564Z,30.72
2022-08-08T13:21:53.731Z,30.35
2022-08-08T13:24:42.157Z,30.35
2022-08-08T13:27:17.448Z,30.73
2022-08-08T13:29:56.335Z,30.26
2022-08-08T13:32:28.679Z,30.34
2022-08-08T13:34:59.343Z,30.21
2022-08-08T13:38:05.401Z,30.88
2022-08-08T13:40:17.619Z,30.62
2022-08-08T13:42:53.706Z,30.75
2022-08-08T13:45:24.376Z,30.53
2022-08-08T13:48:02.928Z,30.83
2022-08-08T13:50:43.994Z,30.50
2022-08-08T13:53:34.077Z,30.78
2022-08-08T13:56:11.689Z,31.14
2022-08-08T13:58:57.656Z,30.99
2022-08-08T14:01:52.963Z,30.83
2022-08-08T14:04:27.590Z,30.86
2022-08-08T14:07:04.480Z,30.72
2022-08-08T14:10:04.578Z,30.73
2022-08-08T14:12:33.770Z,30.56
2022-08-08T14:15:02.977Z,30.66
2022-08-08T14:17:58.145Z,30.56
2022-08-08T14:20:56.578Z,31.02
2022-08-08T14:24:07.113Z,31.42
2022-08-08T14:26:11.098Z,30.83
2022-08-08T14:28:39.661Z,30.94
2022-08-08T14:31:11.410Z,31.34
2022-08-08T14:33:56.680Z,31.16
2022-08-08T14:36:38.796Z,31.64
2022-08-08T14:39:11.674Z,31.21
2022-08-08T14:41:54.368Z,31.74
2022-08-08T14:44:35.036Z,32.29
2022-08-08T14:47:02.640Z,31.87
2022-08-08T14:50:06.461Z,31.10
2022-08-08T14:52:48.258Z,31.57
2022-08-08T14:55:16.395Z,31.79
2022-08-08T14:58:03.269Z,31.42
2022-08-08T15:00:34.858Z,30.78
2022-08-08T15:03:14.767Z,30.83
2022-08-08T15:05:52.382Z,30.56
2022-08-08T15:08:34.607Z,30.66
2022-08-08T15:11:11.399Z,30.90
2022-08-08T15:14:00.931Z,31.21
2022-08-08T15:16:34.309Z,30.92
2022-08-08T15:19:03.010Z,30.70
2022-08-08T15:21:30.639Z,30.63
2022-08-08T15:23:58.279Z,30.75
2022-08-08T15:26:25.430Z,30.98
2022-08-08T15:28:54.347Z,31.05
2022-08-08T15:31:48.932Z,30.96
2022-08-08T15:34:29.280Z,30.73
2022-08-08T15:37:05.008Z,30.61
2022-08-08T15:39:39.450Z,30.62
2022-08-08T15:42:13.368Z,30.64
2022-08-08T15:44:55.522Z,30.64
2022-08-08T15:47:23.875Z,30.61
2022-08-08T15:49:53.153Z,30.65
2022-08-08T15:52:23.078Z,30.61
2022-08-08T15:54:53.008Z,30.60
2022-08-08T15:57:21.676Z,30.52
2022-08-08T16:00:14.167Z,30.62
2022-08-08T16:02:37.232Z,30.47
2022-08-08T16:05:13.901Z,30.49
2022-08-08T16:07:52.368Z,30.66
2022-08-08T16:13:20.818Z,30.63
2022-08-08T16:13:30.282Z,30.55
2022-08-08T16:16:03.344Z,30.36
2022-08-08T16:18:39.892Z,30.53
2022-08-08T16:21:20.667Z,30.28
2022-08-08T16:23:55.652Z,30.43
2022-08-08T16:26:34.255Z,30.30
2022-08-08T16:29:37.080Z,30.14
2022-08-08T16:32:08.246Z,30.21
2022-08-08T16:34:38.229Z,30.19
2022-08-08T16:37:06.278Z,30.06
2022-08-08T16:40:00.391Z,29.97
2022-08-08T16:42:20.751Z,29.97
2022-08-08T16:44:54.547Z,29.75
2022-08-08T16:47:40.070Z,29.86
2022-08-08T16:50:16.699Z,29.93
2022-08-08T16:55:05.138Z,29.88
2022-08-08T16:55:55.100Z,29.93
2022-08-08T16:58:29.379Z,30.11
2022-08-08T17:01:05.926Z,29.89
2022-08-08T17:03:58.567Z,29.92
2022-08-08T17:06:36.797Z,30.07
2022-08-08T17:09:07.602Z,30.11
2022-08-08T17:11:48.753Z,30.01
2022-08-08T17:14:19.494Z,29.79
2022-08-08T17:16:57.204Z,30.01
2022-08-08T17:19:29.830Z,30.05
2022-08-08T17:22:01.477Z,30.02
2022-08-08T17:24:30.897Z,30.21
2022-08-08T17:26:59.848Z,30.11
2022-08-08T17:29:33.835Z,30.19
2022-08-08T17:32:02.592Z,29.98
2022-08-08T17:34:36.051Z,29.85
2022-08-08T17:37:14.899Z,29.58
2022-08-08T17:40:04.826Z,29.49
2022-08-08T17:42:29.387Z,29.48
2022-08-08T17:44:58.297Z,29.89
2022-08-08T17:47:28.004Z,30.32
2022-08-08T17:50:01.309Z,30.04
2022-08-08T17:52:34.405Z,29.96
2022-08-08T17:55:05.627Z,29.84
2022-08-08T17:57:50.988Z,29.16
2022-08-08T18:00:25.824Z,28.55
2022-08-08T18:03:09.009Z,28.40
2022-08-08T18:05:48.147Z,28.24
2022-08-08T18:08:25.144Z,28.20
2022-08-08T18:11:14.892Z,28.13
2022-08-08T18:13:47.161Z,27.84
2022-08-08T18:16:17.092Z,27.86
2022-08-08T18:18:54.062Z,27.49
2022-08-08T18:21:59.390Z,27.49
2022-08-08T18:24:21.598Z,27.26
2022-08-08T18:26:54.787Z,27.10
2022-08-08T18:29:30.210Z,27.02
2022-08-08T18:32:07.316Z,26.92
2022-08-08T18:34:36.933Z,26.78
2022-08-08T18:37:08.516Z,26.73
2022-08-08T18:39:38.763Z,26.46
2022-08-08T18:42:15.685Z,26.38
2022-08-08T18:44:55.047Z,26.16
2022-08-08T18:47:25.447Z,26.04
2022-08-08T18:49:58.544Z,25.92
2022-08-08T18:52:27.551Z,25.79
2022-08-08T18:54:59.313Z,25.83
2022-08-08T18:57:41.213Z,25.77
2022-08-08T19:00:20.131Z,26.02
2022-08-08T19:02:56.803Z,26.04
2022-08-08T19:05:38.563Z,26.17
2022-08-08T19:08:25.063Z,25.84
2022-08-08T19:10:58.439Z,25.23
2022-08-08T19:13:53.414Z,25.16
2022-08-08T19:16:18.453Z,25.16
2022-08-08T19:18:53.321Z,25.00
2022-08-08T19:21:30.419Z,24.75
2022-08-08T19:23:58.970Z,24.57
2022-08-08T19:26:30.403Z,24.51
2022-08-08T19:28:59.575Z,24.56
2022-08-08T19:31:31.406Z,24.67
2022-08-08T19:34:36.340Z,24.72
2022-08-08T19:36:55.369Z,24.73
2022-08-08T19:39:25.682Z,24.52
2022-08-08T19:41:57.868Z,24.35
2022-08-08T19:44:43.019Z,24.40
2022-08-08T19:47:12.407Z,24.21
2022-08-08T19:49:39.622Z,23.71
2022-08-08T19:52:13.308Z,23.13
2022-08-08T19:54:43.063Z,23.13
2022-08-08T19:57:10.472Z,23.21
2022-08-08T19:59:42.004Z,23.10
2022-08-08T20:02:09.689Z,23.03
2022-08-08T20:04:38.465Z,23.31
2022-08-08T20:08:29.881Z,22.94
2022-08-08T20:09:58.787Z,22.78
2022-08-08T20:12:32.445Z,22.51
2022-08-08T20:15:16.586Z,22.25
2022-08-08T20:17:46.735Z,22.31
2022-08-08T20:20:19.728Z,22.28
2022-08-08T20:22:53.994Z,22.23
2022-08-08T20:25:22.173Z,22.11
2022-08-08T20:27:54.056Z,22.09
2022-08-08T20:30:52.780Z,22.23
2022-08-08T20:33:20.029Z,22.14
2022-08-08T20:35:58.707Z,22.09
2022-08-08T20:38:32.311Z,22.15
2022-08-08T20:41:12.229Z,21.96
2022-08-08T20:43:49.341Z,22.05
2022-08-08T20:46:25.567Z,21.93
2022-08-08T20:48:55.587Z,21.92
2022-08-08T20:51:27.212Z,21.90
2022-08-08T20:54:04.835Z,21.86
2022-08-08T20:57:04.001Z,21.73
2022-08-08T20:59:29.058Z,21.75
2022-08-08T21:02:06.887Z,21.70
2022-08-08T21:04:36.728Z,21.63
2022-08-08T21:07:08.368Z,21.54
2022-08-08T21:10:01.856Z,21.75
2022-08-08T21:12:38.195Z,21.72
2022-08-08T21:15:09.750Z,21.74
2022-08-08T21:17:37.712Z,21.62
2022-08-08T21:20:06.555Z,21.59
2022-08-08T21:22:33.827Z,21.63
2022-08-08T21:25:02.105Z,21.71
2022-08-08T21:27:39.036Z,21.55
2022-08-08T21:30:21.673Z,21.59
2022-08-08T21:32:51.184Z,21.57
2022-08-08T21:36:13.761Z,21.47
2022-08-08T21:38:08.510Z,21.47
2022-08-08T21:40:54.660Z,21.28
2022-08-08T21:43:22.398Z,21.22
2022-08-08T21:48:06.369Z,21.02
2022-08-08T21:48:41.822Z,21.02
2022-08-08T21:51:16.495Z,21.02
2022-08-08T21:54:31.632Z,20.90
2022-08-08T21:57:03.046Z,20.96
2022-08-08T22:00:02.865Z,20.85
2022-08-08T22:02:19.639Z,20.97
2022-08-08T22:04:56.115Z,20.92
2022-08-08T22:07:39.748Z,20.87
2022-08-08T22:10:10.124Z,20.85
2022-08-08T22:13:17.510Z,20.78
2022-08-08T22:15:59.698Z,20.79
2022-08-08T22:18:35.366Z,20.75
2022-08-08T22:21:14.137Z,20.56
2022-08-08T22:23:50.939Z,20.59
2022-08-08T22:26:31.004Z,20.57
2022-08-08T22:29:14.410Z,20.50
2022-08-08T22:32:01.875Z,20.59
2022-08-08T22:34:39.537Z,20.60
2022-08-08T22:37:14.879Z,20.44
2022-08-08T22:40:00.877Z,20.50
2022-08-08T22:42:31.954Z,20.46
2022-08-08T22:45:05.377Z,20.49
2022-08-08T22:47:41.248Z,20.46
2022-08-08T22:50:25.767Z,20.37
2022-08-08T22:54:27.645Z,20.43
2022-08-08T22:55:59.008Z,20.42
2022-08-08T22:58:34.192Z,20.32
2022-08-08T23:01:26.873Z,20.37
2022-08-08T23:03:56.614Z,20.46
2022-08-08T23:06:27.310Z,20.66
2022-08-08T23:08:58.944Z,20.81
2022-08-08T23:11:30.745Z,20.89
2022-08-08T23:14:19.328Z,20.81
2022-08-08T23:16:57.910Z,20.88
2022-08-08T23:19:32.240Z,20.82
2022-08-08T23:22:05.325Z,20.64
2022-08-08T23:24:36.126Z,20.74
2022-08-08T23:27:06.137Z,20.66
2022-08-08T23:29:33.591Z,20.49
2022-08-08T23:32:04.514Z,20.49
2022-08-08T23:34:33.233Z,20.59
2022-08-08T23:37:02.598Z,20.38
2022-08-08T23:39:42.130Z,20.51
2022-08-08T23:42:16.667Z,20.45
2022-08-08T23:44:43.623Z,20.49
2022-08-08T23:49:07.120Z,20.25
2022-08-08T23:50:03.169Z,20.27
2022-08-08T23:52:33.672Z,20.19
2022-08-08T23:55:14.007Z,20.47
2022-08-08T23:57:52.851Z,20.36
